Search for airport 
image banner adimage banner ad
image banner ad

SIXE - Aeroclube de Eldorado do Sul Airport

Located in Eldorado Do Sul, Brazil

ICAO - SIXE, IATA -

Data provided by Airmate  

General information

Coordinates: S30°3'1" W51°26'37"
Elevation is 32 feet MSL.
Magnetic variation is -17° East
View others Airports in Rio Grande do Sul

Operational data

Open for public use
Current time UTC:
Current local time:
Weather at : SBPA - Salgado Filho ( 27 km )
METAR: SBPA 011100Z 11012KT 9999 SCT023 23/17 Q1017
TAF: TAF SBPA 010300Z 0106/0206 12005KT 9999 SCT020 TN19/0108Z TX25/0117Z BECMG 0110/0112 09010KT SCT030 BECMG 0114/0116 16010KT BKN030 BECMG 0120/0122 SCT025 RMK PEO
View NOTAMs / SUP AIP / TFR affecting this airport [VIEW]
Communications frequencies: [VIEW]

Runways:

RWY identifierQFULength (ft)Width (ft)SurfaceLDA (ft)
11524998GRASS
29524998GRASS

Airport contact information

Address: Eldorado Do Sul Brazil

Other aviation service providers

Aviation club (not for profit)

Aeroclube De Eldorado Do Sul

Aeroclube De Eldorado Do Sul

Satellite view of SIXE